Brewster, Massachusetts
Current Conditions -  °F | °C
As of 11:52 AM on Thursday 27 Nov 2014 (Local Time) from KCQX Reporting Station
Light Rain Light Rain  
Wind Chill: 32°   Ceiling: 800
Heat Index: 37°   Visibility: 6mi
Dew Point: 35°   Wind: 6mph
Humidity: 93%   Direction: NA
Pressure: 29.93"   Gusts: NA
Location:  41.76°N, 70.08°W
Report Text: KCQX 271652Z AUTO VRB05KT 6SM -RA BR OVC008 03/02 A2993 RMK AO2 RAE1554B23 CIG 006V011 SLP136 P0001 T00280017
Loading
Personal Weather Stations






























Interactive Weather Map New forecast layout! Learn more

10-Day Weather Forecast

Advertisements
Track Severe Weather on mobile